Time;durP1;ratioP1;P1;durP2;ratioP2;P2;SDS_P1;SDS_P2;PMS_P1;PMS_P2;Temp;Humidity;BMP_temperature;BMP_pressure;BME280_temperature;BME280_humidity;BME280_pressure;Samples;Min_cycle;Max_cycle;Signal;HPM_P1;HPM_P2
2024/02/17 00:01:42;;;;;;;13.68;9.70;;;23.50;53.50;;;;;;10362313;28;20047;-52
2024/02/17 00:06:45;;;;;;;14.45;10.32;;;23.50;53.50;;;;;;10354380;28;20135;-52
2024/02/17 00:11:46;;;;;;;16.83;10.38;;;23.40;53.50;;;;;;10353535;28;20115;-51
2024/02/17 00:16:48;;;;;;;14.82;10.15;;;23.30;53.90;;;;;;10353596;28;20057;-54
2024/02/17 00:21:51;;;;;;;15.27;10.00;;;23.20;53.90;;;;;;10351782;28;20046;-52
2024/02/17 00:26:53;;;;;;;12.52;9.75;;;23.10;54.00;;;;;;10359045;28;20496;-49
2024/02/17 00:31:55;;;;;;;13.48;8.95;;;23.20;53.70;;;;;;10367177;28;20397;-51
2024/02/17 00:36:57;;;;;;;13.48;8.88;;;23.10;53.90;;;;;;10361858;28;20148;-53
2024/02/17 00:41:59;;;;;;;11.60;8.32;;;23.10;53.80;;;;;;10360818;28;20152;-55
2024/02/17 00:47:01;;;;;;;9.50;8.07;;;22.90;54.10;;;;;;10360594;28;20049;-50
2024/02/17 00:52:05;;;;;;;11.02;8.43;;;22.90;54.00;;;;;;10359031;28;20307;-50
2024/02/17 00:57:06;;;;;;;10.75;8.07;;;22.90;53.90;;;;;;10359712;28;20038;-51
2024/02/17 01:02:09;;;;;;;11.18;8.05;;;23.00;53.80;;;;;;10357074;28;20057;-50
2024/02/17 01:07:12;;;;;;;11.57;8.02;;;22.90;53.80;;;;;;10354328;28;20046;-51
2024/02/17 01:12:14;;;;;;;9.38;7.10;;;22.80;53.80;;;;;;10355553;28;20100;-50
2024/02/17 01:17:15;;;;;;;9.77;7.47;;;22.80;53.90;;;;;;10356479;28;20397;-53
2024/02/17 01:22:18;;;;;;;11.20;7.18;;;22.70;53.90;;;;;;10356778;28;20064;-53
2024/02/17 01:27:20;;;;;;;9.30;6.78;;;22.70;53.80;;;;;;10357503;28;20138;-51
2024/02/17 01:32:22;;;;;;;10.18;6.93;;;22.70;54.00;;;;;;10351584;28;20052;-50
2024/02/17 01:37:24;;;;;;;9.13;6.38;;;22.70;53.90;;;;;;10360075;28;20052;-54
2024/02/17 01:42:26;;;;;;;8.60;6.88;;;22.60;53.90;;;;;;10357978;28;20121;-51
2024/02/17 01:47:28;;;;;;;8.45;5.82;;;22.60;53.90;;;;;;10360208;28;20064;-54
2024/02/17 01:52:31;;;;;;;8.52;6.30;;;22.50;53.90;;;;;;10358310;28;20432;-49
2024/02/17 01:57:32;;;;;;;7.53;5.80;;;22.50;53.90;;;;;;10353960;28;20050;-53
2024/02/17 02:02:34;;;;;;;7.05;5.68;;;22.50;53.90;;;;;;10357221;28;20056;-53
2024/02/17 02:07:37;;;;;;;7.63;5.50;;;22.50;53.80;;;;;;10351059;28;20061;-52
2024/02/17 02:12:38;;;;;;;7.90;5.25;;;22.50;53.70;;;;;;10351466;28;20050;-52
2024/02/17 02:17:40;;;;;;;6.55;5.13;;;22.50;53.70;;;;;;10354413;28;20049;-53
2024/02/17 02:22:45;;;;;;;7.65;5.22;;;22.40;53.60;;;;;;10353858;28;20050;-54
2024/02/17 02:27:48;;;;;;;8.05;5.22;;;22.40;53.70;;;;;;10356718;28;20053;-59
2024/02/17 02:32:49;;;;;;;6.53;5.32;;;22.40;53.90;;;;;;10364664;28;20056;-51
2024/02/17 02:37:51;;;;;;;6.75;5.07;;;22.40;53.70;;;;;;10364125;28;20050;-51
2024/02/17 02:42:54;;;;;;;5.43;4.47;;;22.30;53.90;;;;;;10362840;28;20053;-53
2024/02/17 02:47:55;;;;;;;5.00;4.25;;;22.30;53.90;;;;;;10360147;28;20042;-53
2024/02/17 02:52:57;;;;;;;6.30;4.63;;;22.20;53.80;;;;;;10367644;28;20411;-53
2024/02/17 02:58:00;;;;;;;6.30;4.70;;;22.20;53.70;;;;;;10361635;28;20041;-52
2024/02/17 03:03:01;;;;;;;5.65;4.20;;;22.20;53.70;;;;;;10363262;28;20044;-51
2024/02/17 03:08:04;;;;;;;5.63;4.47;;;22.20;53.80;;;;;;10364307;28;20108;-51
2024/02/17 03:13:08;;;;;;;5.35;4.00;;;22.20;53.50;;;;;;10363895;28;20046;-52
2024/02/17 03:18:09;;;;;;;5.90;4.20;;;22.00;53.90;;;;;;10361201;28;20054;-49
2024/02/17 03:23:11;;;;;;;5.05;3.90;;;22.10;53.80;;;;;;10355506;28;20045;-51
2024/02/17 03:28:14;;;;;;;4.50;3.85;;;22.20;54.00;;;;;;10362562;28;20046;-55
2024/02/17 03:33:15;;;;;;;5.53;4.05;;;22.00;54.00;;;;;;10362646;28;20056;-55
2024/02/17 03:38:17;;;;;;;6.15;3.90;;;21.90;53.90;;;;;;10358406;28;20124;-51
2024/02/17 03:43:20;;;;;;;5.30;3.88;;;21.90;53.90;;;;;;10357056;28;20389;-48
2024/02/17 03:48:22;;;;;;;4.65;3.55;;;21.90;53.80;;;;;;10355673;28;20072;-49
2024/02/17 03:53:24;;;;;;;5.45;3.65;;;21.90;53.90;;;;;;10358409;28;20140;-52
2024/02/17 03:58:27;;;;;;;5.32;3.55;;;21.90;53.70;;;;;;10356264;28;20038;-49
2024/02/17 04:03:30;;;;;;;5.82;3.67;;;21.90;53.90;;;;;;10361774;28;20046;-53
2024/02/17 04:08:32;;;;;;;4.65;3.63;;;21.90;53.80;;;;;;10361734;28;20167;-55
2024/02/17 04:13:35;;;;;;;5.03;3.95;;;22.10;54.30;;;;;;10362074;28;20136;-51
2024/02/17 04:18:36;;;;;;;4.22;3.67;;;22.40;54.50;;;;;;10356538;28;20423;-51
2024/02/17 04:23:39;;;;;;;4.43;3.50;;;22.50;54.50;;;;;;10355874;28;20081;-52
2024/02/17 04:28:42;;;;;;;5.22;3.53;;;22.70;54.20;;;;;;10358806;28;20050;-49
2024/02/17 04:33:44;;;;;;;4.45;3.35;;;22.80;53.80;;;;;;10361803;28;20046;-52
2024/02/17 04:38:45;;;;;;;4.15;3.40;;;23.00;53.40;;;;;;10363169;28;20046;-53
2024/02/17 04:43:48;;;;;;;3.20;2.90;;;23.00;53.40;;;;;;10360363;28;20048;-50
2024/02/17 04:48:50;;;;;;;3.42;3.10;;;23.10;53.20;;;;;;10353477;28;20497;-51
2024/02/17 04:53:51;;;;;;;4.53;3.33;;;23.10;53.00;;;;;;10358308;28;20132;-51
2024/02/17 04:58:54;;;;;;;3.30;3.00;;;23.20;52.80;;;;;;10355302;28;20046;-49
2024/02/17 05:03:56;;;;;;;3.88;3.17;;;23.20;52.80;;;;;;10355498;28;20037;-50
2024/02/17 05:08:57;;;;;;;3.30;2.92;;;23.20;52.80;;;;;;10356249;28;20068;-53
2024/02/17 05:14:00;;;;;;;2.75;2.40;;;23.30;52.60;;;;;;10358573;28;20052;-56
2024/02/17 05:19:02;;;;;;;3.15;2.67;;;23.30;52.10;;;;;;10364801;28;20173;-54
2024/02/17 05:24:04;;;;;;;3.03;2.50;;;23.40;52.00;;;;;;10360641;28;20124;-55
2024/02/17 05:29:07;;;;;;;2.65;2.42;;;23.40;52.10;;;;;;10359923;28;20056;-52
2024/02/17 05:34:09;;;;;;;2.38;2.05;;;23.40;52.10;;;;;;10359931;28;20460;-50
2024/02/17 05:39:11;;;;;;;2.63;2.13;;;23.50;51.90;;;;;;10355013;28;20452;-52
2024/02/17 05:44:14;;;;;;;2.90;2.25;;;23.60;51.80;;;;;;10360556;28;20041;-53
2024/02/17 05:49:17;;;;;;;2.95;2.40;;;23.60;51.70;;;;;;10362967;28;20061;-50
2024/02/17 05:54:18;;;;;;;4.72;2.30;;;23.60;51.60;;;;;;10358562;28;20137;-52
2024/02/17 05:59:21;;;;;;;2.25;2.05;;;23.60;51.80;;;;;;10354414;28;20053;-55
2024/02/17 06:04:23;;;;;;;2.30;2.10;;;23.30;53.00;;;;;;10348741;28;20493;-51
2024/02/17 06:09:24;;;;;;;2.22;1.85;;;23.70;52.20;;;;;;10348335;28;20070;-52
2024/02/17 06:14:27;;;;;;;2.95;1.88;;;23.80;51.40;;;;;;10344886;28;20042;-53
2024/02/17 06:24:48;;;;;;;1.77;1.67;;;23.90;51.30;;;;;;10355531;28;20042;-52
2024/02/17 06:29:51;;;;;;;1.88;1.63;;;23.80;51.50;;;;;;10356626;28;20042;-50
2024/02/17 06:34:52;;;;;;;1.60;1.50;;;23.70;51.80;;;;;;10356295;28;20057;-52
2024/02/17 06:39:54;;;;;;;1.60;1.50;;;23.70;51.80;;;;;;10356910;28;20051;-50
2024/02/17 06:44:57;;;;;;;1.65;1.50;;;23.90;51.60;;;;;;10354186;28;20137;-50
2024/02/17 06:49:59;;;;;;;2.17;1.40;;;23.70;51.60;;;;;;10349744;28;20050;-51
2024/02/17 06:55:00;;;;;;;1.83;1.25;;;23.70;51.80;;;;;;10355863;28;20068;-52
2024/02/17 07:00:04;;;;;;;2.58;1.30;;;23.50;51.80;;;;;;10359760;28;20049;-52
2024/02/17 07:05:06;;;;;;;1.48;1.38;;;23.60;51.80;;;;;;10355977;28;20042;-51
2024/02/17 07:10:09;;;;;;;2.72;1.58;;;23.60;51.60;;;;;;10357092;28;20051;-54
2024/02/17 07:15:12;;;;;;;4.30;1.38;;;23.60;52.10;;;;;;10356794;28;20077;-53
2024/02/17 07:20:14;;;;;;;5.95;2.10;;;23.70;51.50;;;;;;10351364;28;20070;-51
2024/02/17 07:25:15;;;;;;;7.72;2.47;;;23.80;51.40;;;;;;10358620;28;20225;-55
2024/02/17 07:30:19;;;;;;;16.75;4.70;;;23.70;50.40;;;;;;10363822;28;20136;-55
2024/02/17 07:35:20;;;;;;;24.13;3.72;;;23.70;52.10;;;;;;10356313;28;20046;-56
2024/02/17 07:40:22;;;;;;;9.82;3.30;;;23.30;50.80;;;;;;10361048;28;20157;-57
2024/02/17 07:45:26;;;;;;;8.50;2.60;;;23.20;50.50;;;;;;10364156;28;20500;-53
2024/02/17 07:50:27;;;;;;;15.60;2.70;;;23.40;48.70;;;;;;10362686;28;20046;-54
2024/02/17 07:55:29;;;;;;;7.13;2.03;;;23.30;47.20;;;;;;10363313;28;20092;-55
2024/02/17 08:00:32;;;;;;;9.80;2.08;;;23.10;44.60;;;;;;10362534;28;20054;-52
2024/02/17 08:05:34;;;;;;;7.82;1.80;;;22.90;45.00;;;;;;10358585;28;20459;-52
2024/02/17 08:10:35;;;;;;;11.02;1.70;;;23.30;45.40;;;;;;10356347;28;20049;-52
2024/02/17 08:15:39;;;;;;;5.88;1.95;;;23.50;45.90;;;;;;10356912;28;20050;-53
2024/02/17 08:20:44;;;;;;;10.02;2.28;;;23.50;46.50;;;;;;10357871;28;20112;-50
2024/02/17 08:25:45;;;;;;;9.10;2.40;;;23.60;46.80;;;;;;10360223;28;20137;-53
2024/02/17 08:30:49;;;;;;;9.35;2.15;;;23.70;47.30;;;;;;10356770;28;20518;-53
2024/02/17 08:35:51;;;;;;;11.00;2.47;;;23.90;47.30;;;;;;10353615;28;20128;-54
2024/02/17 08:40:53;;;;;;;9.00;2.30;;;23.80;47.50;;;;;;10359938;28;20050;-51
2024/02/17 08:45:56;;;;;;;10.65;2.80;;;23.40;48.70;;;;;;10359452;28;20038;-47
2024/02/17 08:50:57;;;;;;;7.97;2.40;;;23.40;49.70;;;;;;10353660;28;20508;-51
2024/02/17 08:55:59;;;;;;;8.05;2.33;;;23.60;50.10;;;;;;10362076;28;20068;-51
2024/02/17 09:01:04;;;;;;;9.30;2.50;;;23.80;49.20;;;;;;10356082;28;20038;-52
2024/02/17 09:06:06;;;;;;;10.90;2.47;;;23.90;49.00;;;;;;10360320;28;20121;-52
2024/02/17 09:11:07;;;;;;;8.18;2.38;;;23.80;49.40;;;;;;10363424;28;20050;-53
2024/02/17 09:16:10;;;;;;;11.40;2.33;;;23.70;50.00;;;;;;10359523;28;20148;-48
2024/02/17 09:21:12;;;;;;;13.77;3.03;;;23.70;50.60;;;;;;10357352;28;20044;-53
2024/02/17 09:26:14;;;;;;;15.60;3.30;;;23.70;51.30;;;;;;10353185;28;20048;-48
2024/02/17 09:31:16;;;;;;;11.75;3.40;;;23.90;51.60;;;;;;10371309;28;20072;-50
2024/02/17 09:36:19;;;;;;;14.55;3.92;;;24.00;49.70;;;;;;10357442;28;20061;-50
2024/02/17 09:41:21;;;;;;;12.63;2.95;;;23.90;48.50;;;;;;10351610;28;20053;-47
2024/02/17 09:46:23;;;;;;;9.75;2.88;;;23.80;48.70;;;;;;10357148;28;20050;-52
2024/02/17 09:51:25;;;;;;;12.88;2.80;;;23.90;48.90;;;;;;10352735;28;20053;-50
2024/02/17 09:56:27;;;;;;;15.45;3.10;;;24.00;49.20;;;;;;10357799;28;21387;-48
2024/02/17 10:01:30;;;;;;;11.80;3.05;;;23.90;49.30;;;;;;10357341;28;20056;-48
2024/02/17 10:06:32;;;;;;;10.77;2.67;;;23.90;49.50;;;;;;10362665;28;20619;-50
2024/02/17 10:11:33;;;;;;;12.15;3.13;;;24.00;49.30;;;;;;10360479;28;20052;-55
2024/02/17 10:16:36;;;;;;;9.90;2.63;;;23.90;50.00;;;;;;10353338;28;20099;-49
2024/02/17 10:21:39;;;;;;;11.32;2.63;;;24.00;50.70;;;;;;10358461;28;20041;-51
2024/02/17 10:26:41;;;;;;;8.38;2.75;;;24.00;51.10;;;;;;10345360;28;20046;-48
2024/02/17 10:31:44;;;;;;;10.70;2.42;;;24.00;51.50;;;;;;10352222;28;20527;-48
2024/02/17 10:36:46;;;;;;;15.05;2.75;;;24.00;52.20;;;;;;10343634;28;20080;-51
2024/02/17 10:41:48;;;;;;;12.80;2.92;;;23.70;53.10;;;;;;10350860;28;20042;-49
2024/02/17 10:46:51;;;;;;;16.75;2.65;;;24.00;52.70;;;;;;10352474;28;20053;-51
2024/02/17 10:51:57;;;;;;;9.70;2.13;;;24.10;52.80;;;;;;10364172;28;20037;-56
2024/02/17 10:56:59;;;;;;;11.40;2.30;;;24.10;52.00;;;;;;10359880;28;20206;-52
2024/02/17 11:02:02;;;;;;;16.33;2.55;;;24.20;51.30;;;;;;10360599;28;20133;-55
2024/02/17 11:07:04;;;;;;;11.70;2.60;;;24.20;51.00;;;;;;10361713;28;20129;-56
2024/02/17 11:12:33;;;;;;;16.85;2.85;;;24.10;51.30;;;;;;10356947;28;20132;-52
2024/02/17 11:17:38;;;;;;;13.77;2.45;;;24.00;50.90;;;;;;10368878;28;20060;-54
2024/02/17 11:22:41;;;;;;;11.90;2.53;;;24.10;50.20;;;;;;10364059;28;20065;-53
2024/02/17 11:27:42;;;;;;;12.65;2.80;;;24.10;49.40;;;;;;10361127;28;20419;-56
2024/02/17 11:32:47;;;;;;;7.00;2.20;;;24.10;49.10;;;;;;10357813;28;20128;-58
2024/02/17 11:37:49;;;;;;;9.75;2.30;;;24.00;49.40;;;;;;10358127;28;20133;-56
2024/02/17 11:42:54;;;;;;;14.30;2.45;;;24.00;49.40;;;;;;10355538;28;20563;-55
2024/02/17 11:47:57;;;;;;;11.18;2.30;;;24.10;49.50;;;;;;10349868;28;20057;-52
2024/02/17 11:52:59;;;;;;;11.00;2.22;;;24.10;49.60;;;;;;10347762;28;20562;-52
2024/02/17 11:58:01;;;;;;;7.50;2.08;;;24.10;49.60;;;;;;10355716;28;20052;-56
2024/02/17 12:03:05;;;;;;;10.07;2.05;;;24.10;49.50;;;;;;10354851;28;20049;-54
2024/02/17 12:08:07;;;;;;;7.30;2.00;;;24.10;49.50;;;;;;10352152;28;20054;-55
2024/02/17 12:13:09;;;;;;;6.05;1.80;;;24.20;49.50;;;;;;10356251;28;20132;-49
2024/02/17 12:18:12;;;;;;;5.93;1.90;;;24.20;49.70;;;;;;10350453;28;20456;-52
2024/02/17 12:23:13;;;;;;;4.78;1.58;;;24.20;49.90;;;;;;10355312;28;20045;-53
2024/02/17 12:28:15;;;;;;;4.63;1.70;;;24.20;49.70;;;;;;10362241;28;20041;-53
2024/02/17 12:33:20;;;;;;;4.55;1.50;;;24.20;50.10;;;;;;10359646;28;20167;-55
2024/02/17 12:38:23;;;;;;;4.95;1.60;;;24.20;49.60;;;;;;10359102;28;20042;-51
2024/02/17 12:43:28;;;;;;;6.22;1.90;;;24.30;49.60;;;;;;10361487;28;20053;-50
2024/02/17 12:48:31;;;;;;;5.13;1.52;;;24.30;49.60;;;;;;10360056;28;20050;-54
2024/02/17 12:53:37;;;;;;;4.28;1.50;;;24.20;49.60;;;;;;10355837;28;20090;-50
2024/02/17 12:58:38;;;;;;;4.68;1.40;;;24.20;49.70;;;;;;10349595;28;20049;-55
2024/02/17 13:03:41;;;;;;;5.82;1.40;;;24.20;49.70;;;;;;10346574;28;20050;-52
2024/02/17 13:08:43;;;;;;;4.10;1.40;;;24.10;49.80;;;;;;10353925;28;20053;-52
2024/02/17 13:13:45;;;;;;;3.67;1.40;;;24.20;49.60;;;;;;10353033;28;20046;-54
2024/02/17 13:18:48;;;;;;;2.15;1.10;;;24.20;49.70;;;;;;10352256;28;20057;-51
2024/02/17 13:23:50;;;;;;;2.78;1.20;;;24.30;49.50;;;;;;10350755;28;20424;-50
2024/02/17 13:28:52;;;;;;;2.55;1.33;;;24.10;49.60;;;;;;10354968;28;20137;-54
2024/02/17 13:33:54;;;;;;;3.33;1.20;;;24.20;49.60;;;;;;10355351;28;20129;-54
2024/02/17 13:38:56;;;;;;;2.83;1.20;;;24.20;49.50;;;;;;10350880;28;20520;-51
2024/02/17 13:43:58;;;;;;;3.30;1.20;;;24.20;49.50;;;;;;10358555;28;20057;-53
2024/02/17 13:49:01;;;;;;;4.13;1.08;;;24.30;49.40;;;;;;10359197;28;20140;-58
2024/02/17 13:54:05;;;;;;;3.55;1.08;;;24.20;49.40;;;;;;10359236;28;20060;-57
2024/02/17 13:59:06;;;;;;;3.20;1.23;;;24.10;49.80;;;;;;10356897;28;20539;-58
2024/02/17 14:04:10;;;;;;;2.30;1.20;;;24.10;49.60;;;;;;10346593;28;20064;-55
2024/02/17 14:09:12;;;;;;;2.33;1.10;;;24.20;49.30;;;;;;10350435;28;20129;-54
2024/02/17 14:14:14;;;;;;;2.17;1.00;;;24.30;49.20;;;;;;10355617;28;20054;-54
2024/02/17 14:19:19;;;;;;;2.75;0.90;;;24.30;49.10;;;;;;10359061;28;20751;-55
2024/02/17 14:24:21;;;;;;;3.05;1.05;;;24.10;49.40;;;;;;10360989;28;20077;-57
2024/02/17 14:29:30;;;;;;;1.52;0.90;;;24.10;49.40;;;;;;10366388;28;20415;-54
2024/02/17 14:34:33;;;;;;;1.95;1.00;;;24.20;49.10;;;;;;10357868;28;20416;-58
2024/02/17 14:39:37;;;;;;;3.28;1.00;;;24.20;49.30;;;;;;10352828;28;20134;-56
2024/02/17 14:44:40;;;;;;;3.67;1.25;;;24.20;49.10;;;;;;10357389;28;20050;-53
2024/02/17 14:49:46;;;;;;;2.88;1.00;;;24.20;49.00;;;;;;10360328;28;20073;-55
2024/02/17 14:54:47;;;;;;;1.40;0.80;;;24.10;49.30;;;;;;10364129;28;20049;-57
2024/02/17 14:59:49;;;;;;;1.95;1.00;;;24.10;49.20;;;;;;10365857;28;20049;-54
2024/02/17 15:04:52;;;;;;;2.03;0.80;;;24.30;48.80;;;;;;10366132;28;20061;-56
2024/02/17 15:09:54;;;;;;;1.85;1.17;;;24.20;48.90;;;;;;10361596;28;20448;-57
2024/02/17 15:14:56;;;;;;;2.38;0.80;;;24.30;48.90;;;;;;10354587;28;20049;-56
2024/02/17 15:19:59;;;;;;;3.00;1.17;;;24.20;49.00;;;;;;10363348;28;20507;-57
2024/02/17 15:25:01;;;;;;;1.60;0.88;;;24.10;49.20;;;;;;10366196;28;20512;-54
2024/02/17 15:30:03;;;;;;;1.80;0.88;;;24.20;48.90;;;;;;10365767;28;20068;-57
2024/02/17 15:35:06;;;;;;;1.42;0.93;;;24.20;48.90;;;;;;10365182;28;20058;-58
2024/02/17 15:40:11;;;;;;;1.80;0.90;;;24.10;49.70;;;;;;10358460;28;20060;-56
2024/02/17 15:45:12;;;;;;;2.42;0.90;;;24.10;49.00;;;;;;10359136;28;20065;-57
2024/02/17 15:50:17;;;;;;;2.17;0.95;;;24.20;48.90;;;;;;10349280;28;20061;-55
2024/02/17 15:55:18;;;;;;;1.50;0.80;;;24.10;48.80;;;;;;10354988;28;20050;-56
2024/02/17 16:00:21;;;;;;;1.27;0.70;;;24.20;48.90;;;;;;10361568;28;20414;-54
2024/02/17 16:05:24;;;;;;;1.92;0.90;;;24.20;48.70;;;;;;10362023;28;20042;-54
2024/02/17 16:10:26;;;;;;;1.55;0.80;;;24.30;48.70;;;;;;10362953;28;20046;-56
2024/02/17 16:15:31;;;;;;;1.30;0.80;;;24.20;48.70;;;;;;10361591;28;20058;-57
2024/02/17 16:20:36;;;;;;;1.90;0.75;;;24.10;48.60;;;;;;10356432;28;20065;-53
2024/02/17 16:25:38;;;;;;;1.63;0.77;;;24.20;48.70;;;;;;10357453;28;20042;-55
2024/02/17 16:30:40;;;;;;;1.27;0.70;;;24.20;48.70;;;;;;10355388;28;20493;-52
2024/02/17 16:35:43;;;;;;;3.00;0.80;;;24.20;48.70;;;;;;10356376;28;20042;-56
2024/02/17 16:40:45;;;;;;;1.27;0.70;;;24.10;48.90;;;;;;10361780;28;20053;-58
2024/02/17 16:45:51;;;;;;;2.38;0.90;;;24.10;49.00;;;;;;10358669;28;20579;-52
2024/02/17 16:50:54;;;;;;;1.08;0.70;;;24.10;49.00;;;;;;10354816;28;20043;-52
2024/02/17 16:55:55;;;;;;;1.77;0.60;;;24.20;48.70;;;;;;10348850;28;20060;-50
2024/02/17 17:00:57;;;;;;;0.95;0.50;;;24.10;48.80;;;;;;10349838;28;20045;-56
2024/02/17 17:06:00;;;;;;;3.25;0.80;;;24.10;48.80;;;;;;10351765;28;20085;-57
2024/02/17 17:11:02;;;;;;;1.67;0.80;;;24.00;49.00;;;;;;10353777;28;20045;-57
2024/02/17 17:16:04;;;;;;;1.30;0.80;;;24.10;48.90;;;;;;10357822;28;20041;-56
2024/02/17 17:21:07;;;;;;;1.23;0.70;;;24.20;48.70;;;;;;10360022;28;20041;-57
2024/02/17 17:26:08;;;;;;;1.42;0.70;;;24.10;48.60;;;;;;10358880;28;20088;-57
2024/02/17 17:31:10;;;;;;;1.45;0.60;;;24.10;48.60;;;;;;10356170;28;20487;-56
2024/02/17 17:36:13;;;;;;;1.00;0.60;;;24.00;48.80;;;;;;10345252;28;20137;-53
2024/02/17 17:41:15;;;;;;;1.52;0.70;;;24.00;48.90;;;;;;10355875;28;20046;-55
2024/02/17 17:46:16;;;;;;;0.70;0.52;;;24.10;49.20;;;;;;10351827;28;20049;-57
2024/02/17 17:51:19;;;;;;;0.93;0.60;;;24.10;48.60;;;;;;10357683;28;20052;-54
2024/02/17 17:56:21;;;;;;;1.20;0.70;;;24.10;48.60;;;;;;10359702;28;20419;-56
2024/02/17 18:01:25;;;;;;;2.03;0.60;;;24.10;48.80;;;;;;10354974;28;20054;-54
2024/02/17 18:06:28;;;;;;;1.05;0.50;;;24.10;48.70;;;;;;10350461;28;20081;-50
2024/02/17 18:11:37;;;;;;;1.10;0.68;;;24.10;48.70;;;;;;10348618;28;20137;-54
2024/02/17 18:16:38;;;;;;;1.15;0.52;;;24.10;48.60;;;;;;10351197;28;20081;-49
2024/02/17 18:21:41;;;;;;;0.88;0.60;;;24.10;48.60;;;;;;10352359;28;20054;-54
2024/02/17 18:26:43;;;;;;;0.90;0.60;;;24.10;48.60;;;;;;10348670;28;20139;-52
2024/02/17 18:31:45;;;;;;;1.15;0.63;;;24.10;48.60;;;;;;10356859;28;20058;-54
2024/02/17 18:36:48;;;;;;;1.10;0.77;;;24.10;48.60;;;;;;10355632;28;20137;-53
2024/02/17 18:41:52;;;;;;;1.27;0.60;;;24.10;48.60;;;;;;10359061;28;20165;-54
2024/02/17 18:46:54;;;;;;;1.15;0.70;;;24.10;48.60;;;;;;10351938;28;20389;-51
2024/02/17 18:51:57;;;;;;;1.30;0.80;;;24.00;48.70;;;;;;10355636;28;20060;-57
2024/02/17 18:56:58;;;;;;;1.00;0.68;;;24.00;48.60;;;;;;10350725;28;20062;-53
2024/02/17 19:02:00;;;;;;;1.88;0.90;;;24.00;48.60;;;;;;10351951;28;20724;-56
2024/02/17 19:07:03;;;;;;;1.45;0.68;;;24.10;48.50;;;;;;10347297;28;20601;-52
2024/02/17 19:12:05;;;;;;;1.70;0.70;;;24.00;48.50;;;;;;10360578;28;20048;-56
2024/02/17 19:17:07;;;;;;;1.58;0.80;;;23.90;48.80;;;;;;10358759;28;20132;-55
2024/02/17 19:22:10;;;;;;;1.48;0.70;;;23.90;48.70;;;;;;10356294;28;20056;-52
2024/02/17 19:27:11;;;;;;;2.40;0.57;;;23.90;48.80;;;;;;10356455;28;20512;-53
2024/02/17 19:32:13;;;;;;;1.23;0.65;;;23.80;49.60;;;;;;10354751;28;20476;-53
2024/02/17 19:37:18;;;;;;;1.52;0.70;;;23.70;48.90;;;;;;10358796;28;20145;-54
2024/02/17 19:42:20;;;;;;;1.05;0.70;;;23.60;49.10;;;;;;10361564;28;20081;-55
2024/02/17 19:47:21;;;;;;;0.73;0.57;;;23.50;49.10;;;;;;10360593;28;20092;-50
2024/02/17 19:52:24;;;;;;;0.88;0.70;;;23.40;49.30;;;;;;10360341;28;20046;-59
2024/02/17 19:57:26;;;;;;;1.23;0.82;;;23.30;49.70;;;;;;10361825;28;20051;-57
2024/02/17 20:02:28;;;;;;;0.90;0.55;;;23.20;49.70;;;;;;10359735;28;20081;-58
2024/02/17 20:07:31;;;;;;;0.98;0.70;;;23.40;49.50;;;;;;10356973;28;20507;-57
2024/02/17 20:12:33;;;;;;;1.05;0.60;;;23.30;49.60;;;;;;10353163;28;20100;-55
2024/02/17 20:17:34;;;;;;;0.98;0.70;;;23.30;49.50;;;;;;10348331;28;20145;-60
2024/02/17 20:22:37;;;;;;;0.80;0.70;;;23.10;49.70;;;;;;10344222;28;20060;-58
2024/02/17 20:27:39;;;;;;;0.85;0.70;;;23.20;49.40;;;;;;10350512;28;20137;-58
2024/02/17 20:32:40;;;;;;;1.00;0.73;;;23.20;49.30;;;;;;10356614;28;20060;-58
2024/02/17 20:37:43;;;;;;;0.90;0.70;;;23.20;49.30;;;;;;10351881;28;20055;-60
2024/02/17 20:42:45;;;;;;;1.45;0.88;;;23.30;49.20;;;;;;10355175;28;20059;-60
2024/02/17 20:47:48;;;;;;;0.90;0.70;;;23.30;49.70;;;;;;10353017;28;20046;-56
2024/02/17 20:52:51;;;;;;;1.77;0.80;;;23.30;48.90;;;;;;10362240;28;20389;-54
2024/02/17 20:57:54;;;;;;;0.88;0.70;;;23.10;49.30;;;;;;10352216;28;20121;-52
2024/02/17 21:02:55;;;;;;;1.05;0.80;;;23.00;49.20;;;;;;10346721;28;20516;-58
2024/02/17 21:07:58;;;;;;;0.75;0.70;;;23.00;49.10;;;;;;10354863;28;20058;-55
2024/02/17 21:13:00;;;;;;;1.35;0.70;;;23.10;48.70;;;;;;10354412;28;20046;-51
2024/02/17 21:18:01;;;;;;;0.80;0.60;;;23.20;48.10;;;;;;10351743;28;20140;-54
2024/02/17 21:23:04;;;;;;;1.10;0.70;;;23.20;48.40;;;;;;10350526;28;20081;-54
2024/02/17 21:28:06;;;;;;;1.10;0.80;;;23.00;49.00;;;;;;10346651;28;20515;-58
2024/02/17 21:33:08;;;;;;;1.42;0.82;;;22.80;49.10;;;;;;10346760;28;20144;-58
2024/02/17 21:38:11;;;;;;;1.17;0.70;;;23.20;48.50;;;;;;10346091;28;20046;-55
2024/02/17 21:43:13;;;;;;;1.08;0.80;;;23.30;47.90;;;;;;10349339;28;20121;-57
2024/02/17 21:48:15;;;;;;;1.00;0.80;;;23.30;48.00;;;;;;10351819;28;20129;-54
2024/02/17 21:53:18;;;;;;;1.20;0.80;;;23.20;48.10;;;;;;10351941;28;20118;-55
2024/02/17 21:58:20;;;;;;;0.63;0.60;;;23.20;47.90;;;;;;10352785;28;20129;-54
2024/02/17 22:03:21;;;;;;;0.93;0.80;;;23.10;47.90;;;;;;10355888;28;20121;-53
2024/02/17 22:08:26;;;;;;;1.05;0.65;;;23.10;48.00;;;;;;10353326;28;20049;-53
2024/02/17 22:13:29;;;;;;;1.45;0.75;;;23.00;48.10;;;;;;10351506;28;20505;-53
2024/02/17 22:18:30;;;;;;;1.02;0.60;;;23.00;48.00;;;;;;10357139;28;20066;-55
2024/02/17 22:23:33;;;;;;;1.50;0.88;;;23.00;48.00;;;;;;10359361;28;20059;-55
2024/02/17 22:28:35;;;;;;;0.73;0.70;;;22.90;48.10;;;;;;10356238;28;20050;-59
2024/02/17 22:33:36;;;;;;;1.35;0.80;;;22.80;48.40;;;;;;10352469;28;20501;-56
2024/02/17 22:38:40;;;;;;;0.75;0.70;;;22.80;48.40;;;;;;10348078;28;20125;-57
2024/02/17 22:43:42;;;;;;;0.60;0.52;;;22.70;48.50;;;;;;10352605;28;20134;-57
2024/02/17 22:48:43;;;;;;;1.40;0.98;;;22.60;48.70;;;;;;10361313;28;20503;-57
2024/02/17 22:53:46;;;;;;;0.82;0.77;;;22.50;48.70;;;;;;10360869;28;20148;-57
2024/02/17 22:58:48;;;;;;;1.40;0.90;;;22.50;48.70;;;;;;10356829;28;20121;-56
2024/02/17 23:03:49;;;;;;;0.85;0.80;;;22.40;48.80;;;;;;10354983;28;20137;-59
2024/02/17 23:08:52;;;;;;;1.10;0.80;;;22.30;49.00;;;;;;10364805;28;20050;-58
2024/02/17 23:13:54;;;;;;;1.30;0.80;;;22.40;48.80;;;;;;10359052;28;20049;-59
2024/02/17 23:18:55;;;;;;;0.80;0.75;;;22.30;49.20;;;;;;10363423;28;20050;-58
2024/02/17 23:23:58;;;;;;;0.90;0.80;;;22.10;49.40;;;;;;10359725;28;20046;-59
2024/02/17 23:29:00;;;;;;;0.70;0.70;;;22.20;49.20;;;;;;10363372;28;20046;-58
2024/02/17 23:34:02;;;;;;;1.08;0.70;;;22.20;49.00;;;;;;10361087;28;20052;-57
2024/02/17 23:39:05;;;;;;;1.00;0.90;;;22.00;49.30;;;;;;10359594;28;20129;-58
2024/02/17 23:44:07;;;;;;;0.70;0.70;;;22.10;49.20;;;;;;10358267;28;20620;-57
2024/02/17 23:49:08;;;;;;;1.13;0.80;;;21.90;49.40;;;;;;10358506;28;20054;-59
2024/02/17 23:54:11;;;;;;;1.20;0.90;;;21.80;49.60;;;;;;10351483;28;20045;-57
2024/02/17 23:59:13;;;;;;;0.80;0.70;;;21.80;49.70;;;;;;10361931;28;20046;-59
